Nearby METAR Reports

 

KTTN - Trenton, New Jersey, USA
Distance from station: W 8mi, 12km
Updated: Tue, 20-Oct-2020 9:53pm EDT
Mist, Clear
Mist, Clear
 Wind from calm
Wind: Calm
Temperature: 61°F , 16°C
Dew Point: 61°F , 16°C
Humidity: 100%
Barometer: 30.26 inHg , 1024.7 hPa
Summary: Mist
Clouds: Clear
Visibility: 4 miles , 6 km
2020/10/21 01:53 KTTN 210153Z 00000KT 4SM BR CLR 16/16 A3026 RMK AO2 SLP240 T01560156
KWRI - Wrightst/Mcguire, New Jersey, USA
Distance from station: SSE 18mi, 29km
Updated: Tue, 20-Oct-2020 9:56pm EDT
Mist, Overcast
Mist, Overcast
 Wind from SW
Wind: SW 5 mph , 7 km/h
Temperature: 63°F , 17°C
Dew Point: 63°F , 17°C
Humidity: 100%
Barometer: 30.26 inHg , 1024.7 hPa
Summary: Mist
Clouds: Overcast
Visibility: 1 1/4 miles , 2 km
Cloud details: Overcast 200 ft
2020/10/21 01:56 KWRI 210156Z 23004KT 1 1/4SM BR OVC002 17/17 A3026 RMK AO2A VIS 5/8V1 1/4 VIS 5/8 RWY06 VIS 3/8 RWY18 SLP246 T01680168 $
KPNE - Philadelphia/Ne, Pennsylvania, USA
Distance from station: SW 22mi, 35km
Updated: Tue, 20-Oct-2020 9:54pm EDT
Clear
Clear
 Wind from calm
Wind: Calm
Temperature: 61°F , 16°C
Dew Point: 57°F , 14°C
Humidity: 88%
Barometer: 30.27 inHg , 1025.1 hPa
Clouds: Clear
Visibility: 10 miles , 16 km
2020/10/21 01:54 KPNE 210154Z AUTO 00000KT 10SM CLR 16/14 A3027 RMK AO2 SLP251 T01560139
 
KDYL - Doylestown, Pennsylvania, USA
Distance from station: W 24mi, 38km
Updated: Tue, 20-Oct-2020 9:54pm EDT
Clear
Clear
 Wind from SSE
Wind: SSE 3 mph , 6 km/h
Temperature: 59°F , 15°C
Dew Point: 55°F , 13°C
Humidity: 88%
Barometer: 30.25 inHg , 1024.4 hPa
Clouds: Clear
Visibility: 10 miles , 16 km
2020/10/21 01:54 KDYL 210154Z AUTO 16003KT 10SM CLR 15/13 A3025 RMK AO2 SLP244 T01500133
KSMQ - Somerville, New Jersey, USA
Distance from station: 0 24mi, 39km
Updated: Tue, 20-Oct-2020 9:53pm EDT
Overcast
Overcast
 Wind from calm
Wind: Calm
Temperature: 57°F , 14°C
Dew Point: 57°F , 14°C
Humidity: 100%
Barometer: 30.25 inHg , 1024.4 hPa
Clouds: Overcast
Visibility: 10 miles , 16 km
Cloud details: Overcast 500 ft
2020/10/21 01:53 KSMQ 210153Z AUTO 00000KT 10SM OVC005 14/14 A3025 RMK AO2 SLP243 T01440139
KVAY - Mount Holly, New Jersey, USA
Distance from station: SSW 24mi, 39km
Updated: Tue, 20-Oct-2020 9:54pm EDT
Mist, Overcast
Mist, Overcast
 Wind from calm
Wind: Calm
Temperature: 61°F , 16°C
Dew Point: 59°F , 15°C
Humidity: 94%
Barometer: 30.26 inHg , 1024.7 hPa
Summary: Mist
Clouds: Overcast
Visibility: 1 mile , 2 km
Cloud details: Overcast 300 ft
2020/10/21 01:54 KVAY 210154Z AUTO 00000KT 1SM BR VV003 16/15 A3026 RMK AO2 SLP245 T01560150 $
 
KNEL - Lakehurst Nas, New Jersey, USA
Distance from station: SE 25mi, 40km
Updated: Tue, 20-Oct-2020 10:00pm EDT
Fog, Overcast
Fog, Overcast
 Wind from SSE
Wind: SSE 5 mph , 7 km/h
Barometer: 30.26 inHg , 1024.7 hPa
Summary: Fog
Clouds: Overcast
Visibility: 1/2 mile , 0.8 km
Cloud details: Overcast 200 ft
2020/10/21 02:00 KNEL 210200Z AUTO 15004KT 1/2SM FG VV002 A3026 RMK AO2 SLPNO FZRANO $
KBLM - Belmar/Farmdale, New Jersey, USA
Distance from station: ESE 30mi, 48km
Updated: Tue, 20-Oct-2020 9:56pm EDT
Fog, Overcast
Fog, Overcast
 Wind from calm
Wind: Calm
Temperature: 63°F , 17°C
Dew Point: 63°F , 17°C
Humidity: 100%
Barometer: 30.28 inHg , 1025.4 hPa
Summary: Fog
Clouds: Overcast
Visibility: 1/2 mile , 0.8 km
Cloud details: Overcast 200 ft
2020/10/21 01:56 KBLM 210156Z AUTO 00000KT 1/2SM FG OVC002 17/17 A3028 RMK AO2 SLP254 T01670167 RVRNO
KMJX - Toms River, New Jersey, USA
Distance from station: SE 30mi, 49km
Updated: Tue, 20-Oct-2020 9:56pm EDT
Mist, Overcast
Mist, Overcast
 Wind from calm
Wind: Calm
Temperature: 63°F , 17°C
Dew Point: 63°F , 17°C
Humidity: 100%
Barometer: 30.28 inHg , 1025.4 hPa
Summary: Mist
Clouds: Overcast
Visibility: 1 mile , 2 km
Cloud details: Overcast 300 ft
2020/10/21 01:56 KMJX 210156Z AUTO 00000KT 1SM BR OVC003 17/17 A3028 RMK AO2 SLP256 T01720167
 
KLOM - Philly Wings F, Pennsylvania, USA
Distance from station: WSW 33mi, 52km
Updated: Tue, 20-Oct-2020 9:55pm EDT
Mist, Clear
Mist, Clear
 Wind from calm
Wind: Calm
Temperature: 55°F , 13°C
Dew Point: 54°F , 12°C
Humidity: 94%
Barometer: 30.27 inHg , 1025.1 hPa
Summary: Mist
Clouds: Clear
Visibility: 4 miles , 6 km
2020/10/21 01:55 KLOM 210155Z AUTO 00000KT 4SM BR CLR 13/12 A3027 RMK AO2 T01250125
KCKZ - Perkasie, Pennsylvania, USA
Distance from station: WNW 33mi, 53km
Updated: Tue, 20-Oct-2020 9:55pm EDT
Mist
Mist
 Wind from calm
Wind: Calm
Temperature: 55°F , 13°C
Dew Point: 55°F , 13°C
Humidity: 100%
Barometer: 30.27 inHg , 1025.1 hPa
Summary: Mist
Visibility: 1 mile , 2 km
2020/10/21 01:55 KCKZ 210155Z AUTO 00000KT 1SM BR 13/13 A3027 RMK AO2
KLDJ - Linden, New Jersey, USA
Distance from station: NE 33mi, 53km
Updated: Tue, 20-Oct-2020 9:55pm EDT
Mist, Overcast
Mist, Overcast
 Wind from calm
Wind: Calm
Temperature: 63°F , 17°C
Dew Point: 61°F , 16°C
Humidity: 94%
Barometer: 30.26 inHg , 1024.7 hPa
Summary: Mist
Clouds: Overcast
Visibility: 1 mile , 2 km
Cloud details: Overcast 200 ft
2020/10/21 01:55 KLDJ 210155Z AUTO 00000KT 1SM BR OVC002 17/16 A3026 RMK AO2 T01720163
 
KMMU - Morristown Muni, New Jersey, USA
Distance from station: NNE 38mi, 62km
Updated: Tue, 20-Oct-2020 6:45pm EDT
NOT Current
Clear
Clear
 Wind from calm
Wind: Calm
Temperature: 61°F , 16°C
Dew Point: 61°F , 16°C
Humidity: 100%
Barometer: 30.22 inHg , 1023.4 hPa
Clouds: Clear
Visibility: 10 miles , 16 km
2020/10/20 22:45 KMMU 202245Z 00000KT 10SM SKC 16/16 A3022
KEWR - Newark, New Jersey, USA
Distance from station: NE 39mi, 63km
Updated: Tue, 20-Oct-2020 9:51pm EDT
Fog, Overcast
Fog, Overcast
 Wind from SSE
Wind: SSE 3 mph , 6 km/h
Temperature: 63°F , 17°C
Dew Point: 63°F , 17°C
Humidity: 100%
Barometer: 30.26 inHg , 1024.7 hPa
Summary: Fog
Clouds: Overcast
Visibility: 1/2 mile , 0.8 km
Cloud details: Overcast 200 ft
2020/10/21 01:51 KEWR 210151Z 16003KT 1/2SM R04R/1800V3500FT FG VV002 17/17 A3026 RMK AO2 SLP245 T01720172
KUKT - Quakertown Arp, Pennsylvania, USA
Distance from station: WNW 39mi, 63km
Updated: Tue, 20-Oct-2020 9:55pm EDT
Clear
Clear
 Wind from calm
Wind: Calm
Temperature: 57°F , 14°C
Dew Point: 57°F , 14°C
Humidity: 100%
Barometer: 30.26 inHg , 1024.7 hPa
Clouds: Clear
Visibility: 10 miles , 16 km
2020/10/21 01:55 KUKT 210155Z AUTO 00000KT 10SM CLR 14/14 A3026 RMK A01
 
KPHL - Philadelphia, Pennsylvania, USA
Distance from station: SW 40mi, 65km
Updated: Tue, 20-Oct-2020 9:54pm EDT
Partly cloudy
Partly cloudy
 Wind from ESE
Wind: ESE 3 mph , 6 km/h
Temperature: 61°F , 16°C
Dew Point: 59°F , 15°C
Humidity: 94%
Barometer: 30.26 inHg , 1024.7 hPa
Clouds: Partly cloudy
Visibility: 10 miles , 16 km
Cloud details: Partly cloudy 28000 ft
2020/10/21 01:54 KPHL 210154Z 12003KT 10SM SCT280 16/15 A3026 RMK AO2 SLP246 T01610150
KJRB - Manhattan/Dwntwn, New York, USA
Distance from station: NE 46mi, 74km
Updated: Tue, 20-Oct-2020 9:56pm EDT
Mist, Overcast
Mist, Overcast
 Wind from calm
Wind: Calm
Temperature: 63°F , 17°C
Dew Point: 61°F , 16°C
Humidity: 94%
Barometer: 30.27 inHg , 1025.1 hPa
Summary: Mist
Clouds: Overcast
Visibility: 5 miles , 8 km
Cloud details: Overcast 200 ft
2020/10/21 01:56 KJRB 210156Z AUTO 00000KT 5SM BR OVC002 17/16 A3027 RMK AO2 SLP251 T01720161
KPTW - Pottstown, Pennsylvania, USA
Distance from station: W 46mi, 74km
Updated: Tue, 20-Oct-2020 9:54pm EDT
Clear
Clear
 Wind from ENE
Wind: ENE 3 mph , 6 km/h
Temperature: 55°F , 13°C
Dew Point: 55°F , 13°C
Humidity: 100%
Barometer: 30.27 inHg , 1025.1 hPa
Clouds: Clear
Visibility: 8 miles , 13 km
2020/10/21 01:54 KPTW 210154Z AUTO 06003KT 8SM CLR 13/13 A3027 RMK AO2 SLP249 T01330128
 
KCDW - Caldwell, New Jersey, USA
Distance from station: NNE 47mi, 76km
Updated: Tue, 20-Oct-2020 9:53pm EDT
Mist, Mostly cloudy
Mist, Mostly cloudy
 Wind from calm
Wind: Calm
Temperature: 63°F , 17°C
Dew Point: 61°F , 16°C
Humidity: 94%
Barometer: 30.27 inHg , 1025.1 hPa
Summary: Mist
Clouds: Mostly cloudy
Visibility: 4 miles , 6 km
Cloud details: Mostly cloudy 200 ft
2020/10/21 01:53 KCDW 210153Z 00000KT 4SM BR BKN002 17/16 A3027 RMK AO2 SLP253 T01670156
KXLL - Allentown Queen, Pennsylvania, USA
Distance from station: WNW 47mi, 76km
Updated: Tue, 20-Oct-2020 9:55pm EDT
Clear
Clear
 Wind from SSW
Wind: SSW 3 mph , 6 km/h
Temperature: 61°F , 16°C
Dew Point: 59°F , 15°C
Humidity: 94%
Barometer: 30.27 inHg , 1025.1 hPa
Clouds: Clear
Visibility: 10 miles , 16 km
2020/10/21 01:55 KXLL 210155Z AUTO 20003KT 10SM CLR 16/15 A3027 RMK AO2